createdAt,value
2022-11-05T00:02:23.279Z,9.60
2022-11-05T00:08:07.079Z,8.10
2022-11-05T00:10:36.591Z,6.70
2022-11-05T00:21:02.351Z,9.00
2022-11-05T00:28:43.865Z,7.50
2022-11-05T00:31:14.005Z,6.20
2022-11-05T00:33:42.751Z,7.40
2022-11-05T00:36:10.726Z,7.40
2022-11-05T00:41:05.260Z,8.50
2022-11-05T01:08:47.078Z,6.90
2022-11-05T01:11:35.186Z,6.80
2022-11-05T01:14:08.071Z,7.90
2022-11-05T01:19:03.805Z,5.50
2022-11-05T01:28:57.976Z,5.40
2022-11-05T01:31:25.115Z,7.00
2022-11-05T01:43:52.560Z,5.20
2022-11-05T01:46:27.107Z,6.40
2022-11-05T01:49:01.757Z,6.30
2022-11-05T01:54:02.903Z,6.30
2022-11-05T01:56:35.545Z,6.20
2022-11-05T01:59:09.090Z,6.20
2022-11-05T02:01:36.113Z,6.70
2022-11-05T02:04:08.322Z,4.90
2022-11-05T02:06:38.317Z,6.10
2022-11-05T02:09:21.132Z,6.10
2022-11-05T02:11:49.723Z,6.10
2022-11-05T02:16:55.879Z,6.10
2022-11-05T02:20:00.483Z,4.90
2022-11-05T02:23:04.542Z,6.00
2022-11-05T02:30:49.322Z,5.30
2022-11-05T02:33:37.948Z,4.60
2022-11-05T02:36:31.480Z,5.90
2022-11-05T02:39:18.462Z,5.90
2022-11-05T02:42:22.953Z,4.70
2022-11-05T02:47:44.403Z,6.00
2022-11-05T02:53:03.983Z,6.10
2022-11-05T02:55:46.930Z,5.50
2022-11-05T03:00:46.410Z,6.80
2022-11-05T03:03:34.989Z,6.00
2022-11-05T03:06:07.658Z,4.90
2022-11-05T03:11:17.638Z,5.00
2022-11-05T03:13:57.910Z,5.10
2022-11-05T03:16:33.713Z,5.90
2022-11-05T03:19:25.347Z,4.70
2022-11-05T03:22:05.014Z,6.00
2022-11-05T03:24:35.487Z,6.00
2022-11-05T03:27:13.811Z,6.10
2022-11-05T03:29:49.610Z,6.10
2022-11-05T03:32:18.836Z,5.90
2022-11-05T03:34:51.619Z,6.60
2022-11-05T03:37:21.844Z,7.40
2022-11-05T03:39:56.461Z,6.20
2022-11-05T03:42:29.852Z,7.50
2022-11-05T03:44:59.675Z,6.20
2022-11-05T03:47:32.757Z,6.20
2022-11-05T03:50:17.635Z,7.60
2022-11-05T03:52:58.227Z,6.20
2022-11-05T03:55:32.681Z,6.20
2022-11-05T03:57:59.886Z,6.50
2022-11-05T04:00:26.813Z,6.10
2022-11-05T04:05:21.031Z,6.90
2022-11-05T04:11:06.786Z,4.90
2022-11-05T04:26:38.834Z,6.30
2022-11-05T04:36:50.369Z,6.50
2022-11-05T04:39:21.230Z,6.60
2022-11-05T04:41:48.748Z,6.60
2022-11-05T04:44:16.685Z,6.70
2022-11-05T04:54:05.243Z,7.70
2022-11-05T05:01:26.759Z,6.70
2022-11-05T05:08:50.224Z,8.00
2022-11-05T05:11:19.286Z,6.00
2022-11-05T05:16:25.267Z,6.80
2022-11-05T05:18:53.191Z,7.30
2022-11-05T05:21:39.797Z,7.20
2022-11-05T05:24:11.934Z,7.20
2022-11-05T05:26:41.603Z,7.20
2022-11-05T05:29:09.552Z,7.20
2022-11-05T05:34:05.301Z,7.10
2022-11-05T05:46:21.318Z,6.30
2022-11-05T05:48:50.411Z,8.10
2022-11-05T06:01:18.529Z,6.90
2022-11-05T06:06:14.802Z,6.80
2022-11-05T06:11:09.476Z,7.90
2022-11-05T06:16:06.234Z,6.60
2022-11-05T06:18:34.862Z,8.00
2022-11-05T06:21:10.159Z,6.50
2022-11-05T06:23:38.978Z,6.50
2022-11-05T06:26:08.899Z,5.40
2022-11-05T06:28:36.090Z,6.20
2022-11-05T06:36:02.140Z,6.30
2022-11-05T06:40:59.443Z,6.30
2022-11-05T06:48:21.386Z,7.70
2022-11-05T07:00:38.959Z,5.60
2022-11-05T07:03:08.082Z,6.30
2022-11-05T07:05:38.494Z,6.20
2022-11-05T07:23:13.293Z,6.30
2022-11-05T07:25:41.706Z,7.30
2022-11-05T07:28:09.593Z,6.40
2022-11-05T07:30:37.238Z,8.40
2022-11-05T07:35:32.308Z,5.30
2022-11-05T07:40:28.020Z,8.10
2022-11-05T07:42:57.666Z,6.90
2022-11-05T07:45:25.759Z,6.90
2022-11-05T07:48:00.997Z,8.30
2022-11-05T07:50:30.641Z,8.30
2022-11-05T07:53:08.429Z,8.10
2022-11-05T07:58:03.401Z,7.60
2022-11-05T08:00:30.609Z,6.60
2022-11-05T08:05:38.641Z,8.00
2022-11-05T08:08:08.351Z,8.10
2022-11-05T08:10:36.274Z,8.30
2022-11-05T08:13:03.556Z,9.70
2022-11-05T08:18:06.971Z,7.30
2022-11-05T08:20:35.234Z,8.70
2022-11-05T08:23:02.084Z,9.30
2022-11-05T08:28:05.716Z,10.00
2022-11-05T08:30:32.994Z,8.00
2022-11-05T08:33:05.639Z,9.30
2022-11-05T08:35:35.135Z,9.60
2022-11-05T08:38:03.882Z,8.90
2022-11-05T08:40:33.051Z,9.60
2022-11-05T08:48:09.529Z,10.00
2022-11-05T08:50:37.443Z,9.10
2022-11-05T08:53:05.318Z,10.40
2022-11-05T08:58:02.302Z,12.00
2022-11-05T09:00:31.418Z,10.30
2022-11-05T09:03:07.016Z,12.30
2022-11-05T09:05:39.211Z,12.50
2022-11-05T09:08:07.318Z,11.50
2022-11-05T09:10:34.563Z,11.30
2022-11-05T09:25:18.610Z,14.80
2022-11-05T09:27:45.504Z,12.20
2022-11-05T09:30:13.515Z,13.70
2022-11-05T09:37:37.075Z,12.60
2022-11-05T09:40:04.528Z,12.70
2022-11-05T09:42:46.082Z,13.90
2022-11-05T09:45:19.143Z,13.50
2022-11-05T09:48:04.036Z,13.60
2022-11-05T09:50:40.378Z,13.50
2022-11-05T09:55:41.269Z,14.00
2022-11-05T09:58:35.273Z,14.00
2022-11-05T10:01:05.732Z,14.00
2022-11-05T10:03:39.153Z,13.90
2022-11-05T10:06:11.055Z,13.90
2022-11-05T10:08:44.654Z,13.70
2022-11-05T10:11:19.222Z,13.50
2022-11-05T10:13:59.997Z,13.40
2022-11-05T10:16:36.279Z,12.80
2022-11-05T10:21:59.421Z,12.70
2022-11-05T10:24:20.301Z,12.80
2022-11-05T10:26:50.519Z,13.90
2022-11-05T10:29:27.704Z,13.70
2022-11-05T10:31:56.054Z,13.40
2022-11-05T10:34:27.882Z,13.40
2022-11-05T10:42:00.213Z,13.30
2022-11-05T10:47:06.191Z,13.20
2022-11-05T10:50:00.844Z,14.40
2022-11-05T10:55:00.743Z,13.00
2022-11-05T10:57:36.840Z,13.00
2022-11-05T11:00:16.151Z,11.70
2022-11-05T11:02:45.760Z,13.00
2022-11-05T11:05:25.450Z,13.00
2022-11-05T11:08:12.498Z,13.50
2022-11-05T11:10:55.505Z,13.00
2022-11-05T11:13:26.207Z,14.00
2022-11-05T11:15:53.585Z,11.70
2022-11-05T11:18:41.938Z,12.40
2022-11-05T11:21:19.539Z,13.90
2022-11-05T11:24:02.282Z,13.10
2022-11-05T11:26:35.399Z,13.10
2022-11-05T11:29:12.741Z,13.20
2022-11-05T11:31:40.392Z,13.20
2022-11-05T11:34:29.719Z,14.80
2022-11-05T11:37:12.860Z,13.70
2022-11-05T11:39:48.929Z,13.60
2022-11-05T11:42:28.336Z,12.60
2022-11-05T11:44:59.071Z,15.20
2022-11-05T11:47:28.751Z,13.90
2022-11-05T11:49:58.132Z,14.10
2022-11-05T11:52:33.476Z,12.90
2022-11-05T11:55:12.271Z,14.20
2022-11-05T11:57:48.999Z,14.20
2022-11-05T12:00:17.593Z,14.50
2022-11-05T12:03:04.539Z,14.50
2022-11-05T12:06:09.096Z,14.40
2022-11-05T12:08:45.573Z,13.50
2022-11-05T12:11:29.264Z,14.60
2022-11-05T12:14:00.615Z,14.70
2022-11-05T12:16:59.251Z,14.80
2022-11-05T12:19:38.014Z,15.30
2022-11-05T12:22:42.058Z,16.10
2022-11-05T12:25:36.577Z,17.20
2022-11-05T12:28:31.298Z,17.60
2022-11-05T12:31:03.468Z,21.20
2022-11-05T12:33:51.077Z,19.60
2022-11-05T12:36:53.325Z,19.10
2022-11-05T12:39:49.073Z,18.40
2022-11-05T12:42:28.000Z,17.70
2022-11-05T12:45:03.288Z,16.00
2022-11-05T12:48:01.549Z,16.30
2022-11-05T12:53:11.964Z,15.60
2022-11-05T12:55:47.100Z,15.30
2022-11-05T12:58:32.873Z,14.10
2022-11-05T13:01:05.944Z,13.70
2022-11-05T13:03:41.733Z,13.40
2022-11-05T13:06:14.929Z,13.60
2022-11-05T13:09:02.242Z,13.90
2022-11-05T13:11:50.278Z,15.20
2022-11-05T13:14:22.272Z,16.40
2022-11-05T13:17:06.373Z,15.10
2022-11-05T13:19:55.702Z,15.00
2022-11-05T13:22:44.660Z,15.10
2022-11-05T13:25:29.398Z,16.10
2022-11-05T13:28:33.692Z,14.70
2022-11-05T13:31:03.399Z,14.50
2022-11-05T13:33:36.582Z,13.30
2022-11-05T13:36:27.979Z,14.60
2022-11-05T13:39:24.847Z,14.80
2022-11-05T13:42:19.932Z,14.60
2022-11-05T13:45:11.272Z,17.00
2022-11-05T13:48:16.131Z,16.40
2022-11-05T13:53:34.891Z,15.80
2022-11-05T13:56:13.578Z,13.50
2022-11-05T13:58:52.584Z,15.40
2022-11-05T14:01:38.209Z,15.20
2022-11-05T14:04:05.811Z,15.00
2022-11-05T14:06:35.640Z,14.50
2022-11-05T14:09:08.391Z,14.40
2022-11-05T14:11:42.837Z,14.40
2022-11-05T14:14:22.883Z,13.00
2022-11-05T14:17:12.839Z,14.20
2022-11-05T14:20:22.235Z,14.10
2022-11-05T14:25:18.986Z,15.10
2022-11-05T14:27:49.159Z,13.60
2022-11-05T14:30:42.571Z,13.50
2022-11-05T14:33:26.078Z,13.40
2022-11-05T14:36:20.896Z,13.10
2022-11-05T14:38:50.560Z,14.20
2022-11-05T14:41:18.227Z,13.50
2022-11-05T14:43:58.332Z,12.80
2022-11-05T14:48:59.114Z,12.70
2022-11-05T14:51:33.242Z,12.70
2022-11-05T14:54:27.399Z,12.70
2022-11-05T14:56:57.608Z,12.80
2022-11-05T14:59:24.368Z,11.20
2022-11-05T15:02:18.192Z,11.40
2022-11-05T15:07:29.439Z,12.40
2022-11-05T15:10:07.280Z,11.40
2022-11-05T15:12:45.996Z,12.40
2022-11-05T15:15:43.239Z,11.90
2022-11-05T15:18:29.299Z,12.40
2022-11-05T15:20:58.797Z,13.70
2022-11-05T15:23:30.452Z,12.40
2022-11-05T15:26:20.495Z,13.70
2022-11-05T15:28:52.105Z,12.20
2022-11-05T15:31:34.110Z,12.20
2022-11-05T15:34:21.431Z,12.10
2022-11-05T15:37:02.893Z,12.30
2022-11-05T15:39:44.214Z,12.10
2022-11-05T15:42:22.270Z,12.10
2022-11-05T15:44:59.817Z,12.00
2022-11-05T15:47:32.029Z,12.00
2022-11-05T15:50:08.599Z,12.10
2022-11-05T15:52:48.564Z,12.00
2022-11-05T15:57:59.371Z,11.90
2022-11-05T16:00:28.516Z,12.00
2022-11-05T16:03:02.363Z,11.80
2022-11-05T16:05:35.381Z,11.90
2022-11-05T16:08:05.209Z,11.80
2022-11-05T16:10:35.484Z,11.80
2022-11-05T16:13:33.332Z,11.80
2022-11-05T16:16:03.582Z,11.70
2022-11-05T16:18:40.071Z,11.60
2022-11-05T16:21:10.052Z,11.70
2022-11-05T16:23:56.984Z,11.20
2022-11-05T16:31:59.467Z,11.60
2022-11-05T16:34:46.454Z,11.60
2022-11-05T16:37:16.424Z,11.50
2022-11-05T16:42:34.337Z,10.30
2022-11-05T16:45:01.151Z,10.50
2022-11-05T16:47:28.127Z,11.50
2022-11-05T16:52:22.364Z,12.70
2022-11-05T16:57:24.963Z,11.40
2022-11-05T16:59:52.198Z,12.80
2022-11-05T17:02:19.084Z,12.60
2022-11-05T17:04:46.094Z,12.70
2022-11-05T17:09:40.228Z,12.60
2022-11-05T17:12:08.621Z,11.30
2022-11-05T17:14:35.447Z,12.20
2022-11-05T17:19:30.007Z,12.60
2022-11-05T17:21:56.896Z,12.40
2022-11-05T17:31:45.450Z,11.90
2022-11-05T17:34:12.315Z,12.70
2022-11-05T17:36:39.295Z,12.30
2022-11-05T17:56:32.218Z,11.30
2022-11-05T18:01:31.396Z,12.70
2022-11-05T18:13:57.004Z,10.40
2022-11-05T18:26:15.862Z,11.40
2022-11-05T18:28:43.513Z,11.30
2022-11-05T18:31:18.306Z,11.40
2022-11-05T18:36:19.323Z,11.30
2022-11-05T18:46:08.773Z,12.60
2022-11-05T18:48:36.457Z,11.20
2022-11-05T18:51:14.779Z,11.30
2022-11-05T18:53:42.155Z,11.20
2022-11-05T18:56:10.841Z,11.20
2022-11-05T19:01:13.026Z,11.10
2022-11-05T19:11:11.663Z,11.20
2022-11-05T19:13:39.500Z,11.80
2022-11-05T19:16:12.084Z,11.30
2022-11-05T19:21:18.155Z,10.10
2022-11-05T19:23:45.217Z,11.50
2022-11-05T19:26:18.035Z,11.10
2022-11-05T19:28:45.208Z,10.00
2022-11-05T19:31:14.904Z,11.00
2022-11-05T19:33:43.143Z,10.90
2022-11-05T19:36:11.303Z,10.30
2022-11-05T19:41:10.877Z,11.10
2022-11-05T19:43:38.941Z,11.00
2022-11-05T19:46:10.543Z,11.00
2022-11-05T19:51:13.544Z,10.00
2022-11-05T19:53:40.921Z,10.90
2022-11-05T19:56:10.955Z,11.10
2022-11-05T20:06:05.140Z,10.90
2022-11-05T20:28:10.875Z,11.80
2022-11-05T20:30:39.753Z,10.80
2022-11-05T20:42:55.418Z,12.10
2022-11-05T20:50:16.818Z,9.70
2022-11-05T20:57:38.848Z,9.70
2022-11-05T21:00:07.336Z,11.70
2022-11-05T21:02:35.282Z,10.70
2022-11-05T21:17:19.904Z,11.60
2022-11-05T21:24:43.235Z,10.40
2022-11-05T21:32:04.694Z,11.00
2022-11-05T21:57:36.616Z,10.70
2022-11-05T22:00:08.797Z,10.70
2022-11-05T22:05:04.224Z,10.50
2022-11-05T22:07:34.233Z,9.80
2022-11-05T22:12:29.302Z,10.50
2022-11-05T22:27:16.003Z,10.60
2022-11-05T22:32:11.237Z,10.50
2022-11-05T22:37:05.837Z,9.50
2022-11-05T22:44:34.127Z,11.00
2022-11-05T23:04:14.229Z,10.60
2022-11-05T23:09:51.338Z,9.90
2022-11-05T23:12:24.958Z,9.70
2022-11-05T23:14:52.758Z,10.50
2022-11-05T23:20:31.183Z,10.50
2022-11-05T23:25:44.383Z,9.60
2022-11-05T23:31:02.367Z,10.10
2022-11-05T23:33:33.587Z,9.90
2022-11-05T23:38:46.276Z,11.80
2022-11-05T23:47:03.662Z,10.30
